createdAt,value
2023-04-18T08:41:46.755Z,46.41
2023-04-18T08:51:56.872Z,46.81
2023-04-18T09:02:03.961Z,47.66
2023-04-18T09:12:10.769Z,51.87
2023-04-18T09:22:17.742Z,53.68
2023-04-18T09:32:25.555Z,54.11
2023-04-18T09:42:34.045Z,53.46
2023-04-18T09:52:42.034Z,53.71
2023-04-18T10:02:49.329Z,53.07
2023-04-18T10:12:56.324Z,52.97
2023-04-18T10:23:02.851Z,52.07
2023-04-18T10:33:18.322Z,51.88
2023-04-18T10:43:21.999Z,51.25
2023-04-18T10:53:29.259Z,52.44
2023-04-18T11:03:36.655Z,51.46
2023-04-18T11:13:44.262Z,49.31
2023-04-18T11:23:51.365Z,50.83
2023-04-18T11:33:58.762Z,51.38
2023-04-18T11:44:06.407Z,50.93
2023-04-18T11:54:13.864Z,51.05
2023-04-18T12:04:22.389Z,50.90
2023-04-18T12:14:29.357Z,51.01
2023-04-18T12:24:35.382Z,51.38
2023-04-18T12:34:42.806Z,51.19
2023-04-18T12:44:49.736Z,51.68
2023-04-18T12:54:56.884Z,51.83
2023-04-18T13:05:03.868Z,52.06
2023-04-18T13:15:11.609Z,52.32
2023-04-18T13:25:18.638Z,51.20
2023-04-18T13:35:25.897Z,52.06
2023-04-18T13:45:33.238Z,52.77
2023-04-18T13:55:40.515Z,50.69
2023-04-18T14:05:47.912Z,51.79
2023-04-18T14:15:55.271Z,52.10
2023-04-18T14:26:02.984Z,51.56
2023-04-18T14:36:10.232Z,49.94
2023-04-18T14:46:17.569Z,47.50
2023-04-18T14:56:24.352Z,49.05
2023-04-18T15:06:31.894Z,51.34
2023-04-18T15:16:38.263Z,53.03
2023-04-18T15:26:45.379Z,53.54
2023-04-18T15:36:52.231Z,53.91
2023-04-18T15:46:59.502Z,53.88
2023-04-18T15:57:06.642Z,53.69
2023-04-18T16:07:13.744Z,53.70
2023-04-18T16:17:20.484Z,53.55
2023-04-18T16:27:27.574Z,53.53
2023-04-18T16:37:34.914Z,53.58
2023-04-18T16:47:41.924Z,53.45
2023-04-18T16:57:48.532Z,53.36
2023-04-18T17:07:54.871Z,53.28
2023-04-18T17:18:02.080Z,53.17
2023-04-18T17:28:09.002Z,53.16
2023-04-18T17:38:16.109Z,53.17
2023-04-18T17:48:22.820Z,53.08
2023-04-18T17:58:30.131Z,53.21
2023-04-18T18:08:37.199Z,53.53
2023-04-18T18:18:44.130Z,53.63
2023-04-18T18:28:51.242Z,53.67
2023-04-18T18:38:57.944Z,53.56
2023-04-18T18:49:05.345Z,53.52
2023-04-18T18:59:12.340Z,53.45
2023-04-18T19:09:19.216Z,53.42
2023-04-18T19:19:26.514Z,53.34
2023-04-18T19:29:33.789Z,53.27
2023-04-18T19:39:40.430Z,53.15
2023-04-18T19:49:47.490Z,53.09
2023-04-18T19:59:54.794Z,52.96
2023-04-18T20:10:01.494Z,52.91
2023-04-18T20:20:08.817Z,52.71
2023-04-18T20:30:15.663Z,52.73
2023-04-18T20:40:23.079Z,52.66
2023-04-18T20:50:29.654Z,52.62
2023-04-18T21:00:36.926Z,52.64
2023-04-18T21:10:43.922Z,52.52
2023-04-18T21:20:50.817Z,52.42
2023-04-18T21:30:58.294Z,52.36
2023-04-18T21:41:04.932Z,52.35
2023-04-18T21:51:12.031Z,52.28
2023-04-18T22:01:18.990Z,52.28
2023-04-18T22:11:25.990Z,52.30
2023-04-18T22:21:32.795Z,52.14
2023-04-18T22:31:40.001Z,51.99
2023-04-18T22:41:47.271Z,51.84
2023-04-18T22:51:54.699Z,51.76
2023-04-18T23:02:01.648Z,51.69
2023-04-18T23:12:09.457Z,51.52
2023-04-18T23:22:16.687Z,51.42
2023-04-18T23:32:23.731Z,51.26
2023-04-18T23:42:30.341Z,51.15
2023-04-18T23:52:37.389Z,50.99
